createdAt,value
2019-05-30T00:00:07.727Z,4.10
2019-05-30T00:02:23.423Z,3.83
2019-05-30T00:04:50.496Z,3.97
2019-05-30T00:07:17.552Z,4.00
2019-05-30T00:10:05.213Z,3.80
2019-05-30T00:12:32.421Z,4.73
2019-05-30T00:15:00.574Z,3.60
2019-05-30T00:17:27.911Z,6.40
2019-05-30T00:19:55.105Z,3.40
2019-05-30T00:22:22.517Z,3.77
2019-05-30T00:24:49.568Z,3.43
2019-05-30T00:27:16.629Z,4.53
2019-05-30T00:29:43.687Z,4.80
2019-05-30T00:32:10.725Z,3.63
2019-05-30T00:34:37.881Z,3.80
2019-05-30T00:37:06.083Z,4.63
2019-05-30T00:39:33.468Z,3.40
2019-05-30T00:42:00.507Z,5.70
2019-05-30T00:44:27.987Z,4.00
2019-05-30T00:46:56.073Z,3.43
2019-05-30T00:49:23.192Z,4.20
2019-05-30T00:51:50.232Z,3.70
2019-05-30T00:54:17.296Z,3.70
2019-05-30T00:56:44.368Z,3.53
2019-05-30T00:59:12.120Z,4.30
2019-05-30T01:01:39.168Z,6.10
2019-05-30T01:04:07.135Z,4.87
2019-05-30T01:06:34.667Z,3.63
2019-05-30T01:09:03.075Z,3.90
2019-05-30T01:11:31.048Z,3.80
2019-05-30T01:13:58.957Z,5.97
2019-05-30T01:16:26.543Z,3.87
2019-05-30T01:18:53.697Z,3.70
2019-05-30T01:21:20.732Z,4.00
2019-05-30T01:23:47.779Z,4.30
2019-05-30T01:26:15.828Z,7.27
2019-05-30T01:28:42.900Z,4.93
2019-05-30T01:31:11.575Z,4.70
2019-05-30T01:33:38.922Z,4.23
2019-05-30T01:36:05.957Z,6.23
2019-05-30T01:38:33.010Z,4.23
2019-05-30T01:41:00.193Z,4.37
2019-05-30T01:43:27.614Z,5.00
2019-05-30T01:45:54.685Z,4.53
2019-05-30T01:48:21.832Z,5.00
2019-05-30T01:50:48.888Z,5.57
2019-05-30T01:53:16.034Z,4.10
2019-05-30T01:55:43.084Z,4.33
2019-05-30T01:58:10.131Z,4.80
2019-05-30T02:00:39.372Z,6.17
2019-05-30T02:03:07.250Z,4.93
2019-05-30T02:05:34.325Z,4.30
2019-05-30T02:08:01.432Z,4.33
2019-05-30T02:10:28.491Z,5.27
2019-05-30T02:12:55.546Z,5.60
2019-05-30T02:15:22.684Z,4.33
2019-05-30T02:17:49.772Z,4.07
2019-05-30T02:20:17.837Z,5.47
2019-05-30T02:22:44.887Z,5.07
2019-05-30T02:25:12.176Z,4.90
2019-05-30T02:27:39.327Z,8.37
2019-05-30T02:32:42.129Z,4.63
2019-05-30T02:35:12.513Z,5.07
2019-05-30T02:37:38.953Z,3.87
2019-05-30T02:40:09.849Z,5.93
2019-05-30T02:42:36.788Z,4.70
2019-05-30T02:45:05.730Z,4.57
2019-05-30T02:47:33.365Z,5.03
2019-05-30T02:50:01.480Z,3.97
2019-05-30T02:52:29.424Z,4.17
2019-05-30T02:54:56.452Z,4.63
2019-05-30T02:57:23.508Z,7.17
2019-05-30T02:59:50.569Z,5.27
2019-05-30T03:02:18.072Z,6.10
2019-05-30T03:04:45.332Z,4.87
2019-05-30T03:07:13.272Z,4.97
2019-05-30T03:09:40.902Z,5.00
2019-05-30T03:12:09.133Z,4.03
2019-05-30T03:14:37.206Z,5.17
2019-05-30T03:17:05.299Z,5.90
2019-05-30T03:19:33.421Z,4.87
2019-05-30T03:22:02.818Z,5.37
2019-05-30T03:24:29.744Z,3.93
2019-05-30T03:26:56.828Z,5.70
2019-05-30T03:29:23.896Z,5.03
2019-05-30T03:31:52.125Z,3.90
2019-05-30T03:34:27.636Z,5.37
2019-05-30T03:36:48.453Z,4.50
2019-05-30T03:39:15.643Z,6.00
2019-05-30T03:41:42.990Z,4.17
2019-05-30T03:44:11.517Z,4.70
2019-05-30T03:46:43.503Z,6.87
2019-05-30T03:49:15.051Z,5.27
2019-05-30T03:51:46.115Z,5.80
2019-05-30T03:54:15.992Z,5.07
2019-05-30T03:56:47.031Z,3.60
2019-05-30T03:59:36.849Z,5.20
2019-05-30T04:02:13.988Z,5.30
2019-05-30T04:04:51.014Z,6.33
2019-05-30T04:07:21.921Z,5.77
2019-05-30T04:09:52.780Z,6.27
2019-05-30T04:12:40.619Z,5.30
2019-05-30T04:15:18.215Z,5.93
2019-05-30T04:17:46.920Z,6.40
2019-05-30T04:20:20.670Z,5.40
2019-05-30T04:22:44.834Z,5.50
2019-05-30T04:25:12.571Z,7.17
2019-05-30T04:27:39.967Z,8.70
2019-05-30T04:32:39.140Z,5.73
2019-05-30T04:35:07.930Z,6.73
2019-05-30T04:37:35.205Z,6.83
2019-05-30T04:40:03.192Z,7.27
2019-05-30T04:42:30.357Z,7.67
2019-05-30T04:44:57.431Z,8.27
2019-05-30T04:47:24.490Z,7.87
2019-05-30T04:49:51.580Z,7.07
2019-05-30T04:52:23.623Z,7.13
2019-05-30T04:54:47.596Z,7.03
2019-05-30T04:57:15.030Z,6.73
2019-05-30T04:59:43.736Z,6.30
2019-05-30T05:02:11.409Z,7.00
2019-05-30T05:04:39.158Z,6.03
2019-05-30T05:07:06.207Z,6.83
2019-05-30T05:09:33.269Z,6.20
2019-05-30T05:12:00.338Z,7.00
2019-05-30T05:14:27.380Z,6.30
2019-05-30T05:16:54.427Z,6.60
2019-05-30T05:19:24.750Z,5.40
2019-05-30T05:21:50.440Z,5.90
2019-05-30T05:24:17.491Z,7.10
2019-05-30T05:26:44.669Z,7.07
2019-05-30T05:29:11.728Z,6.13
2019-05-30T05:31:38.792Z,8.63
2019-05-30T05:34:05.864Z,6.77
2019-05-30T05:36:32.916Z,6.93
2019-05-30T05:38:59.987Z,6.67
2019-05-30T05:41:27.052Z,6.43
2019-05-30T05:43:54.124Z,8.87
2019-05-30T05:46:22.439Z,6.50
2019-05-30T05:48:49.759Z,8.97
2019-05-30T05:51:16.814Z,8.87
2019-05-30T05:53:43.892Z,8.37
2019-05-30T05:56:10.944Z,8.53
2019-05-30T05:58:38.012Z,7.87
2019-05-30T06:01:05.186Z,10.30
2019-05-30T06:03:32.240Z,8.07
2019-05-30T06:05:59.330Z,8.10
2019-05-30T06:08:27.607Z,11.40
2019-05-30T06:10:54.843Z,8.77
2019-05-30T06:13:22.911Z,10.03
2019-05-30T06:15:50.176Z,7.77
2019-05-30T06:18:18.340Z,7.73
2019-05-30T06:20:45.403Z,8.00
2019-05-30T06:23:12.482Z,10.60
2019-05-30T06:25:39.528Z,9.43
2019-05-30T06:28:06.586Z,8.00
2019-05-30T06:30:34.130Z,8.10
2019-05-30T06:33:01.190Z,7.87
2019-05-30T06:35:29.528Z,8.27
2019-05-30T06:37:58.039Z,8.13
2019-05-30T06:40:25.549Z,8.73
2019-05-30T06:42:52.668Z,8.83
2019-05-30T06:45:20.935Z,9.07
2019-05-30T06:47:48.948Z,9.27
2019-05-30T06:52:07.540Z,10.93
2019-05-30T06:54:34.726Z,7.87
2019-05-30T06:57:01.796Z,8.10
2019-05-30T06:59:29.762Z,8.83
2019-05-30T07:01:56.977Z,8.00
2019-05-30T07:04:25.499Z,8.53
2019-05-30T07:06:53.167Z,8.60
2019-05-30T07:09:20.620Z,8.47
2019-05-30T07:11:47.822Z,8.73
2019-05-30T07:14:14.900Z,8.47
2019-05-30T07:16:41.993Z,8.23
2019-05-30T07:19:09.070Z,8.87
2019-05-30T07:21:36.159Z,9.83
2019-05-30T07:24:03.663Z,9.53
2019-05-30T07:26:31.869Z,10.40
2019-05-30T07:29:00.857Z,8.07
2019-05-30T07:31:28.300Z,9.87
2019-05-30T07:33:55.369Z,7.67
2019-05-30T07:36:22.558Z,7.83
2019-05-30T07:38:49.628Z,9.03
2019-05-30T07:41:16.715Z,7.93
2019-05-30T07:43:43.827Z,9.13
2019-05-30T07:46:11.138Z,11.63
2019-05-30T07:48:38.642Z,8.10
2019-05-30T07:51:05.792Z,9.30
2019-05-30T07:53:32.896Z,9.00
2019-05-30T07:56:00.044Z,9.60
2019-05-30T07:58:27.132Z,10.47
2019-05-30T08:00:54.308Z,8.37
2019-05-30T08:03:21.384Z,10.70
2019-05-30T08:05:48.460Z,10.07
2019-05-30T08:08:15.548Z,9.87
2019-05-30T08:10:43.633Z,10.57
2019-05-30T08:13:10.717Z,9.70
2019-05-30T08:15:43.788Z,10.30
2019-05-30T08:18:06.865Z,11.13
2019-05-30T08:20:34.004Z,10.70
2019-05-30T08:23:01.124Z,8.97
2019-05-30T08:25:28.202Z,9.43
2019-05-30T08:27:55.280Z,10.93
2019-05-30T08:30:25.844Z,10.77
2019-05-30T08:32:53.121Z,9.10
2019-05-30T08:35:20.329Z,9.80
2019-05-30T08:37:47.606Z,11.90
2019-05-30T08:40:15.497Z,10.43
2019-05-30T08:42:42.578Z,10.00
2019-05-30T08:45:10.636Z,10.13
2019-05-30T08:47:38.155Z,9.83
2019-05-30T08:50:06.389Z,10.23
2019-05-30T08:52:34.461Z,10.57
2019-05-30T08:55:02.093Z,11.00
2019-05-30T08:57:30.325Z,10.63
2019-05-30T08:59:57.766Z,10.57
2019-05-30T09:02:24.858Z,10.83
2019-05-30T09:04:51.936Z,11.23
2019-05-30T09:07:19.029Z,10.80
2019-05-30T09:09:46.434Z,10.97
2019-05-30T09:12:13.896Z,11.27
2019-05-30T09:14:41.210Z,11.57
2019-05-30T09:17:08.707Z,13.00
2019-05-30T09:19:37.891Z,10.87
2019-05-30T09:22:05.695Z,10.80
2019-05-30T09:24:34.985Z,11.30
2019-05-30T09:27:02.153Z,12.07
2019-05-30T09:29:29.335Z,11.13
2019-05-30T09:31:56.418Z,10.57
2019-05-30T09:34:23.522Z,12.13
2019-05-30T09:36:50.589Z,12.53
2019-05-30T09:39:17.689Z,10.20
2019-05-30T09:41:45.710Z,11.73
2019-05-30T09:44:13.087Z,10.67
2019-05-30T09:46:41.348Z,10.00
2019-05-30T09:49:09.254Z,11.00
2019-05-30T09:51:36.327Z,10.23
2019-05-30T09:54:03.749Z,10.37
2019-05-30T09:56:30.845Z,11.07
2019-05-30T09:58:58.354Z,10.30
2019-05-30T10:01:25.784Z,11.53
2019-05-30T10:03:52.982Z,9.87
2019-05-30T10:06:29.033Z,11.87
2019-05-30T10:08:49.648Z,9.97
2019-05-30T10:11:17.578Z,9.70
2019-05-30T10:13:46.362Z,11.40
2019-05-30T10:16:13.738Z,10.97
2019-05-30T10:18:40.813Z,10.37
2019-05-30T10:21:09.081Z,11.17
2019-05-30T10:23:36.180Z,10.80
2019-05-30T10:26:03.421Z,11.20
2019-05-30T10:28:30.684Z,11.30
2019-05-30T10:30:59.414Z,11.23
2019-05-30T10:33:26.666Z,12.50
2019-05-30T10:35:53.754Z,10.50
2019-05-30T10:38:20.883Z,11.97
2019-05-30T10:40:48.828Z,10.47
2019-05-30T10:43:17.032Z,10.30
2019-05-30T10:45:44.842Z,10.47
2019-05-30T10:48:13.204Z,9.50
2019-05-30T10:50:40.337Z,10.03
2019-05-30T10:53:07.443Z,9.17
2019-05-30T10:55:34.765Z,10.77
2019-05-30T10:58:01.848Z,8.90
2019-05-30T11:00:58.019Z,9.47
2019-05-30T11:03:26.641Z,9.20
2019-05-30T11:06:11.620Z,9.17
2019-05-30T11:08:39.444Z,10.17
2019-05-30T11:11:06.616Z,8.43
2019-05-30T11:13:34.086Z,8.43
2019-05-30T11:16:01.274Z,9.27
2019-05-30T11:18:28.350Z,9.47
2019-05-30T11:20:56.342Z,8.27
2019-05-30T11:23:23.812Z,8.00
2019-05-30T11:25:50.897Z,8.00
2019-05-30T11:28:17.971Z,8.47
2019-05-30T11:30:45.076Z,8.10
2019-05-30T11:33:12.154Z,8.23
2019-05-30T11:35:39.572Z,8.20
2019-05-30T11:38:06.764Z,8.37
2019-05-30T11:40:33.958Z,8.50
2019-05-30T11:43:01.037Z,8.57
2019-05-30T11:45:28.643Z,10.17
2019-05-30T11:47:55.797Z,8.57
2019-05-30T11:50:23.297Z,9.30
2019-05-30T11:52:51.607Z,10.00
2019-05-30T11:55:19.071Z,9.23
2019-05-30T11:57:47.726Z,9.70
2019-05-30T12:00:15.204Z,10.07
2019-05-30T12:02:42.384Z,8.60
2019-05-30T12:05:09.760Z,9.30
2019-05-30T12:07:37.845Z,9.20
2019-05-30T12:10:06.273Z,9.30
2019-05-30T12:12:33.537Z,8.73
2019-05-30T12:15:01.629Z,8.27
2019-05-30T12:17:28.912Z,8.40
2019-05-30T12:19:56.070Z,8.53
2019-05-30T12:22:23.457Z,8.97
2019-05-30T12:24:51.678Z,9.03
2019-05-30T12:27:19.084Z,8.13
2019-05-30T12:29:46.152Z,7.60
2019-05-30T12:32:13.245Z,9.00
2019-05-30T12:34:40.312Z,8.77
2019-05-30T12:37:07.400Z,8.87
2019-05-30T12:39:34.585Z,8.60
2019-05-30T12:42:01.682Z,9.20
2019-05-30T12:44:28.875Z,7.70
2019-05-30T12:46:57.044Z,8.43
2019-05-30T12:49:24.556Z,7.93
2019-05-30T12:51:51.765Z,8.07
2019-05-30T12:54:19.156Z,8.30
2019-05-30T12:56:46.240Z,7.83
2019-05-30T12:59:13.305Z,7.40
2019-05-30T13:01:40.377Z,6.20
2019-05-30T13:04:07.465Z,6.00
2019-05-30T13:06:34.621Z,5.73
2019-05-30T13:09:01.838Z,5.80
2019-05-30T13:11:30.645Z,7.90
2019-05-30T13:13:58.488Z,5.70
2019-05-30T13:16:25.836Z,5.90
2019-05-30T13:18:52.932Z,7.27
2019-05-30T13:21:20.233Z,10.13
2019-05-30T13:23:47.294Z,8.93
2019-05-30T13:26:14.480Z,7.90
2019-05-30T13:28:41.994Z,8.23
2019-05-30T13:33:38.290Z,8.03
2019-05-30T13:36:05.107Z,10.50
2019-05-30T13:38:32.464Z,11.53
2019-05-30T13:40:59.537Z,11.77
2019-05-30T13:43:28.032Z,10.40
2019-05-30T13:45:55.593Z,9.80
2019-05-30T13:48:22.672Z,7.47
2019-05-30T13:50:49.756Z,8.30
2019-05-30T13:53:16.817Z,6.57
2019-05-30T13:55:43.953Z,7.37
2019-05-30T13:58:11.145Z,5.50
2019-05-30T14:00:38.233Z,5.23
2019-05-30T14:03:06.195Z,6.73
2019-05-30T14:05:33.713Z,6.10
2019-05-30T14:08:02.485Z,5.40
2019-05-30T14:10:29.857Z,5.83
2019-05-30T14:12:56.943Z,5.47
2019-05-30T14:15:24.833Z,5.10
2019-05-30T14:17:51.952Z,5.73
2019-05-30T14:20:19.383Z,7.10
2019-05-30T14:22:46.482Z,5.87
2019-05-30T14:25:14.059Z,6.47
2019-05-30T14:27:42.467Z,7.50
2019-05-30T14:32:40.187Z,8.25
2019-05-30T14:35:08.668Z,11.13
2019-05-30T14:37:35.977Z,11.53
2019-05-30T14:40:04.526Z,12.13
2019-05-30T14:42:31.714Z,9.83
2019-05-30T14:44:58.949Z,11.40
2019-05-30T14:47:26.336Z,6.70
2019-05-30T14:49:53.423Z,5.60
2019-05-30T14:52:20.575Z,4.93
2019-05-30T14:54:47.704Z,3.47
2019-05-30T14:57:14.793Z,7.55
2019-05-30T14:59:42.861Z,2.60
2019-05-30T15:02:11.269Z,3.43
2019-05-30T15:04:38.818Z,2.30
2019-05-30T15:07:05.899Z,2.40
2019-05-30T15:09:33.222Z,3.97
2019-05-30T15:12:00.325Z,2.30
2019-05-30T15:14:27.408Z,3.87
2019-05-30T15:16:54.489Z,2.30
2019-05-30T15:19:21.814Z,3.53
2019-05-30T15:21:48.985Z,2.10
2019-05-30T15:24:16.174Z,2.63
2019-05-30T15:26:43.284Z,2.73
2019-05-30T15:29:10.598Z,2.37
2019-05-30T15:31:37.789Z,1.67
2019-05-30T15:34:04.850Z,2.07
2019-05-30T15:36:31.940Z,1.80
2019-05-30T15:38:59.035Z,1.60
2019-05-30T15:41:26.100Z,1.90
2019-05-30T15:43:53.184Z,3.40
2019-05-30T15:46:20.287Z,3.40
2019-05-30T15:48:47.362Z,1.60
2019-05-30T15:51:14.704Z,2.30
2019-05-30T15:53:42.233Z,1.67
2019-05-30T15:56:09.309Z,1.63
2019-05-30T15:58:36.389Z,1.30
2019-05-30T16:01:03.672Z,1.97
2019-05-30T16:03:30.746Z,1.50
2019-05-30T16:05:57.913Z,1.90
2019-05-30T16:08:25.104Z,3.23
2019-05-30T16:10:52.181Z,2.27
2019-05-30T16:13:19.527Z,1.77
2019-05-30T16:15:46.730Z,1.93
2019-05-30T16:18:13.944Z,1.47
2019-05-30T16:20:41.212Z,1.97
2019-05-30T16:23:08.302Z,1.50
2019-05-30T16:25:35.481Z,3.20
2019-05-30T16:28:02.675Z,2.20
2019-05-30T16:30:29.955Z,2.70
2019-05-30T16:32:57.129Z,2.77
2019-05-30T16:35:24.229Z,1.90
2019-05-30T16:37:51.386Z,2.70
2019-05-30T16:40:18.652Z,1.63
2019-05-30T16:42:45.728Z,2.73
2019-05-30T16:45:18.467Z,2.77
2019-05-30T16:47:42.333Z,2.30
2019-05-30T16:50:10.982Z,3.83
2019-05-30T16:52:38.281Z,3.83
2019-05-30T16:55:07.129Z,3.63
2019-05-30T16:57:34.231Z,2.53
2019-05-30T17:00:01.413Z,2.67
2019-05-30T17:02:28.712Z,2.60
2019-05-30T17:04:55.949Z,2.57
2019-05-30T17:07:23.423Z,2.43
2019-05-30T17:09:50.823Z,3.43
2019-05-30T17:12:17.927Z,2.30
2019-05-30T17:14:44.992Z,2.73
2019-05-30T17:17:12.068Z,2.87
2019-05-30T17:19:39.660Z,2.80
2019-05-30T17:22:06.926Z,3.07
2019-05-30T17:24:34.033Z,3.30
2019-05-30T17:27:01.222Z,2.23
2019-05-30T17:29:28.399Z,2.30
2019-05-30T17:31:55.484Z,3.23
2019-05-30T17:34:22.567Z,2.90
2019-05-30T17:36:49.653Z,4.37
2019-05-30T17:39:16.737Z,2.20
2019-05-30T17:41:43.988Z,3.47
2019-05-30T17:44:11.072Z,2.50
2019-05-30T17:46:38.156Z,2.17
2019-05-30T17:49:05.441Z,3.93
2019-05-30T17:51:32.535Z,3.73
2019-05-30T17:53:59.619Z,2.43
2019-05-30T17:56:28.094Z,3.20
2019-05-30T17:58:55.346Z,3.67
2019-05-30T18:01:22.471Z,2.67
2019-05-30T18:03:49.532Z,4.37
2019-05-30T18:06:16.717Z,2.63
2019-05-30T18:08:43.809Z,3.30
2019-05-30T18:11:10.916Z,5.47
2019-05-30T18:13:39.603Z,4.73
2019-05-30T18:16:06.705Z,4.40
2019-05-30T18:18:33.881Z,4.77
2019-05-30T18:21:01.245Z,5.57
2019-05-30T18:23:29.607Z,3.43
2019-05-30T18:25:57.193Z,4.40
2019-05-30T18:28:24.304Z,5.30
2019-05-30T18:30:51.497Z,3.00
2019-05-30T18:33:18.722Z,4.07
2019-05-30T18:35:46.084Z,3.30
2019-05-30T18:38:13.169Z,2.57
2019-05-30T18:40:41.669Z,2.50
2019-05-30T18:43:08.861Z,4.70
2019-05-30T18:45:40.639Z,2.60
2019-05-30T18:48:08.708Z,3.33
2019-05-30T18:50:36.203Z,4.77
2019-05-30T18:53:03.542Z,3.83
2019-05-30T18:55:30.825Z,3.27
2019-05-30T18:57:58.031Z,4.00
2019-05-30T19:00:25.455Z,4.47
2019-05-30T19:02:52.531Z,3.07
2019-05-30T19:05:19.715Z,4.47
2019-05-30T19:07:46.919Z,3.13
2019-05-30T19:10:14.407Z,2.70
2019-05-30T19:12:41.489Z,2.80
2019-05-30T19:15:10.326Z,3.90
2019-05-30T19:17:37.530Z,4.87
2019-05-30T19:20:04.953Z,4.03
2019-05-30T19:22:32.234Z,5.63
2019-05-30T19:24:59.412Z,6.13
2019-05-30T19:27:26.492Z,4.57
2019-05-30T19:29:54.102Z,4.77
2019-05-30T19:32:21.165Z,6.67
2019-05-30T19:34:48.248Z,3.93
2019-05-30T19:39:47.679Z,4.83
2019-05-30T19:42:14.731Z,4.63
2019-05-30T19:44:41.828Z,3.60
2019-05-30T19:47:09.045Z,6.93
2019-05-30T19:49:36.909Z,5.10
2019-05-30T19:52:04.587Z,4.77
2019-05-30T19:54:33.012Z,5.57
2019-05-30T19:57:00.224Z,4.00
2019-05-30T19:59:27.284Z,4.50
2019-05-30T20:01:54.343Z,5.00
2019-05-30T20:04:21.397Z,5.37
2019-05-30T20:06:48.468Z,4.67
2019-05-30T20:09:15.532Z,4.63
2019-05-30T20:11:42.604Z,3.73
2019-05-30T20:14:09.672Z,5.20
2019-05-30T20:16:37.854Z,4.67
2019-05-30T20:19:05.000Z,5.47
2019-05-30T20:21:32.063Z,7.03
2019-05-30T20:23:59.629Z,4.10
2019-05-30T20:26:27.234Z,4.13
2019-05-30T20:28:54.380Z,5.13
2019-05-30T20:31:21.550Z,4.70
2019-05-30T20:33:49.061Z,4.57
2019-05-30T20:36:16.120Z,4.07
2019-05-30T20:38:43.168Z,4.33
2019-05-30T20:41:10.223Z,4.67
2019-05-30T20:43:38.991Z,3.87
2019-05-30T20:46:06.161Z,6.43
2019-05-30T20:48:33.223Z,5.30
2019-05-30T20:51:00.283Z,6.10
2019-05-30T20:53:27.357Z,5.67
2019-05-30T20:55:54.420Z,4.83
2019-05-30T20:58:21.572Z,4.37
2019-05-30T21:00:48.650Z,5.50
2019-05-30T21:03:16.508Z,4.67
2019-05-30T21:05:44.135Z,6.40
2019-05-30T21:08:12.116Z,4.53
2019-05-30T21:10:39.380Z,4.10
2019-05-30T21:13:06.642Z,4.07
2019-05-30T21:15:37.521Z,3.97
2019-05-30T21:18:06.161Z,5.03
2019-05-30T21:20:33.448Z,4.17
2019-05-30T21:23:00.520Z,4.43
2019-05-30T21:25:27.895Z,5.83
2019-05-30T21:27:54.992Z,5.33
2019-05-30T21:30:22.144Z,4.97
2019-05-30T21:32:49.428Z,4.50
2019-05-30T21:35:17.215Z,9.80
2019-05-30T21:37:45.821Z,6.17
2019-05-30T21:40:13.283Z,4.97
2019-05-30T21:42:57.817Z,4.63
2019-05-30T21:45:11.100Z,6.00
2019-05-30T21:47:38.692Z,5.87
2019-05-30T21:50:06.931Z,6.23
2019-05-30T21:52:34.081Z,5.67
2019-05-30T21:55:03.557Z,6.23
2019-05-30T21:57:30.192Z,6.10
2019-05-30T21:59:57.255Z,4.60
2019-05-30T22:02:24.888Z,9.60
2019-05-30T22:04:51.947Z,6.80
2019-05-30T22:07:19.100Z,4.20
2019-05-30T22:09:47.281Z,4.87
2019-05-30T22:12:14.904Z,5.10
2019-05-30T22:14:41.992Z,4.57
2019-05-30T22:17:09.161Z,4.63
2019-05-30T22:19:36.364Z,4.53
2019-05-30T22:22:03.626Z,4.93
2019-05-30T22:24:30.687Z,5.13
2019-05-30T22:26:57.835Z,5.43
2019-05-30T22:29:25.280Z,5.47
2019-05-30T22:31:53.531Z,4.10
2019-05-30T22:34:21.124Z,3.67
2019-05-30T22:36:48.939Z,5.93
2019-05-30T22:39:16.511Z,3.27
2019-05-30T22:41:43.867Z,4.20
2019-05-30T22:44:11.412Z,3.67
2019-05-30T22:46:39.927Z,3.37
2019-05-30T22:49:06.994Z,3.53
2019-05-30T22:51:34.035Z,4.20
2019-05-30T22:54:01.105Z,3.17
2019-05-30T22:56:28.167Z,5.07
2019-05-30T22:58:55.833Z,4.33
2019-05-30T23:01:23.249Z,3.60
2019-05-30T23:03:52.203Z,3.03
2019-05-30T23:06:19.263Z,5.80
2019-05-30T23:08:46.427Z,3.63
2019-05-30T23:11:13.588Z,4.10
2019-05-30T23:13:40.949Z,4.90
2019-05-30T23:16:27.971Z,4.60
2019-05-30T23:18:55.019Z,4.23
2019-05-30T23:21:22.804Z,4.40
2019-05-30T23:23:51.723Z,2.60
2019-05-30T23:26:18.823Z,3.27
2019-05-30T23:28:45.881Z,4.97
2019-05-30T23:31:13.037Z,4.83
2019-05-30T23:33:40.180Z,3.77
2019-05-30T23:36:07.227Z,4.73
2019-05-30T23:38:34.288Z,2.83
2019-05-30T23:41:01.372Z,5.50
2019-05-30T23:43:28.410Z,4.27
2019-05-30T23:45:55.754Z,3.00
2019-05-30T23:48:23.309Z,4.73
2019-05-30T23:50:50.369Z,4.20
2019-05-30T23:53:17.420Z,3.67
2019-05-30T23:55:44.484Z,5.40
2019-05-30T23:58:11.962Z,4.13
